createdAt,value
2022-12-08T00:01:09.627Z,82.74
2022-12-08T00:03:37.090Z,83.07
2022-12-08T00:06:23.789Z,82.31
2022-12-08T00:09:08.516Z,82.60
2022-12-08T00:11:35.038Z,82.73
2022-12-08T00:14:01.875Z,82.50
2022-12-08T00:16:28.528Z,82.71
2022-12-08T00:18:55.045Z,82.42
2022-12-08T00:21:21.473Z,81.75
2022-12-08T00:23:47.935Z,82.01
2022-12-08T00:26:14.371Z,82.08
2022-12-08T00:28:40.880Z,81.68
2022-12-08T00:31:09.550Z,81.85
2022-12-08T00:33:36.679Z,82.40
2022-12-08T00:36:11.884Z,82.02
2022-12-08T00:38:39.436Z,82.60
2022-12-08T00:41:15.014Z,82.84
2022-12-08T00:43:41.533Z,81.97
2022-12-08T00:46:08.598Z,82.62
2022-12-08T00:48:35.161Z,82.64
2022-12-08T00:51:01.789Z,82.53
2022-12-08T00:53:28.361Z,82.69
2022-12-08T00:55:54.764Z,82.15
2022-12-08T00:58:21.200Z,82.69
2022-12-08T01:00:47.678Z,82.11
2022-12-08T01:03:14.250Z,82.87
2022-12-08T01:05:40.722Z,82.57
2022-12-08T01:08:08.621Z,83.04
2022-12-08T01:10:37.552Z,82.45
2022-12-08T01:13:04.398Z,83.25
2022-12-08T01:15:30.847Z,83.33
2022-12-08T01:17:57.424Z,83.31
2022-12-08T01:20:24.189Z,83.39
2022-12-08T01:22:50.679Z,83.54
2022-12-08T01:25:17.267Z,83.15
2022-12-08T01:27:43.712Z,82.65
2022-12-08T01:30:10.604Z,83.54
2022-12-08T01:32:37.068Z,83.06
2022-12-08T01:35:03.800Z,83.49
2022-12-08T01:37:30.312Z,83.12
2022-12-08T01:39:56.740Z,83.69
2022-12-08T01:42:24.890Z,83.13
2022-12-08T01:45:02.504Z,83.60
2022-12-08T01:47:42.576Z,83.48
2022-12-08T01:50:13.654Z,82.88
2022-12-08T01:52:48.005Z,83.17
2022-12-08T01:55:24.475Z,83.12
2022-12-08T01:57:56.225Z,83.90
2022-12-08T02:00:23.367Z,83.81
2022-12-08T02:03:06.947Z,83.96
2022-12-08T02:05:36.832Z,84.45
2022-12-08T02:08:08.565Z,83.44
2022-12-08T02:10:36.905Z,83.65
2022-12-08T02:13:05.933Z,83.86
2022-12-08T02:15:39.425Z,84.48
2022-12-08T02:18:19.493Z,83.85
2022-12-08T02:21:31.312Z,84.57
2022-12-08T02:24:23.162Z,83.88
2022-12-08T02:27:15.613Z,84.60
2022-12-08T02:30:15.797Z,84.33
2022-12-08T02:32:42.251Z,84.14
2022-12-08T02:35:23.667Z,83.35
2022-12-08T02:38:22.621Z,83.98
2022-12-08T02:40:53.551Z,83.44
2022-12-08T02:43:32.222Z,83.32
2022-12-08T02:46:08.048Z,83.54
2022-12-08T02:48:35.188Z,83.37
2022-12-08T02:51:01.927Z,83.44
2022-12-08T02:53:32.064Z,84.02
2022-12-08T02:56:14.726Z,83.91
2022-12-08T02:59:14.330Z,83.90
2022-12-08T03:01:55.745Z,83.86
2022-12-08T03:04:45.148Z,83.66
2022-12-08T03:07:30.255Z,83.08
2022-12-08T03:10:05.808Z,83.52
2022-12-08T03:12:48.130Z,83.97
2022-12-08T03:15:20.061Z,83.86
2022-12-08T03:17:51.758Z,83.35
2022-12-08T03:20:20.809Z,83.14
2022-12-08T03:22:48.348Z,83.73
2022-12-08T03:25:17.037Z,82.95
2022-12-08T03:27:44.101Z,83.37
2022-12-08T03:30:11.054Z,83.41
2022-12-08T03:32:47.553Z,82.98
2022-12-08T03:35:21.655Z,82.98
2022-12-08T03:37:48.207Z,83.30
2022-12-08T03:40:17.630Z,82.86
2022-12-08T03:42:44.138Z,82.94
2022-12-08T03:45:11.140Z,82.55
2022-12-08T03:47:38.025Z,83.60
2022-12-08T03:50:05.492Z,83.18
2022-12-08T03:52:32.080Z,82.74
2022-12-08T03:54:58.531Z,82.84
2022-12-08T03:57:24.971Z,82.70
2022-12-08T03:59:51.417Z,83.00
2022-12-08T04:02:17.954Z,82.76
2022-12-08T04:04:44.467Z,83.51
2022-12-08T04:07:10.919Z,82.74
2022-12-08T04:09:38.877Z,82.88
2022-12-08T04:12:05.533Z,83.46
2022-12-08T04:14:31.987Z,84.02
2022-12-08T04:16:58.419Z,83.44
2022-12-08T04:19:24.858Z,84.38
2022-12-08T04:21:51.386Z,84.10
2022-12-08T04:24:17.869Z,84.45
2022-12-08T04:26:44.334Z,84.63
2022-12-08T04:29:10.792Z,84.36
2022-12-08T04:31:37.692Z,84.24
2022-12-08T04:34:04.267Z,84.52
2022-12-08T04:36:30.714Z,84.87
2022-12-08T04:38:57.789Z,84.38
2022-12-08T04:41:24.265Z,84.66
2022-12-08T04:43:50.704Z,84.50
2022-12-08T04:46:17.188Z,85.08
2022-12-08T04:48:43.676Z,85.58
2022-12-08T04:51:28.042Z,86.04
2022-12-08T04:53:54.473Z,86.14
2022-12-08T04:56:20.934Z,86.24
2022-12-08T04:58:47.506Z,86.31
2022-12-08T05:01:14.473Z,86.45
2022-12-08T05:03:41.085Z,86.06
2022-12-08T05:06:07.636Z,86.88
2022-12-08T05:08:34.216Z,87.00
2022-12-08T05:11:06.187Z,86.90
2022-12-08T05:13:33.301Z,87.01
2022-12-08T05:16:08.093Z,86.98
2022-12-08T05:18:35.395Z,87.16
2022-12-08T05:21:02.404Z,86.94
2022-12-08T05:23:28.933Z,86.83
2022-12-08T05:25:55.726Z,86.96
2022-12-08T05:31:09.545Z,85.97
2022-12-08T05:33:36.032Z,86.56
2022-12-08T05:36:02.504Z,85.81
2022-12-08T05:38:29.457Z,86.43
2022-12-08T05:40:55.890Z,86.49
2022-12-08T05:43:22.424Z,86.42
2022-12-08T05:45:48.946Z,86.57
2022-12-08T05:48:15.946Z,86.57
2022-12-08T05:50:47.891Z,86.06
2022-12-08T05:53:15.596Z,85.73
2022-12-08T05:55:42.189Z,86.14
2022-12-08T05:58:13.218Z,85.70
2022-12-08T06:00:40.367Z,86.35
2022-12-08T06:03:06.967Z,86.28
2022-12-08T06:05:34.682Z,85.97
2022-12-08T06:08:01.352Z,85.47
2022-12-08T06:10:28.394Z,85.90
2022-12-08T06:12:54.842Z,85.97
2022-12-08T06:15:21.414Z,86.03
2022-12-08T06:17:47.878Z,85.67
2022-12-08T06:20:14.927Z,85.77
2022-12-08T06:22:41.393Z,85.47
2022-12-08T06:25:10.151Z,85.92
2022-12-08T06:27:36.924Z,85.73
2022-12-08T06:30:03.929Z,86.09
2022-12-08T06:32:30.648Z,85.74
2022-12-08T06:34:57.175Z,86.01
2022-12-08T06:37:23.603Z,85.39
2022-12-08T06:39:50.127Z,85.77
2022-12-08T06:42:34.994Z,85.18
2022-12-08T06:45:01.678Z,85.47
2022-12-08T06:47:28.094Z,85.37
2022-12-08T06:49:54.563Z,85.54
2022-12-08T06:52:21.018Z,85.77
2022-12-08T06:54:47.455Z,85.37
2022-12-08T06:57:13.898Z,85.40
2022-12-08T06:59:40.366Z,84.99
2022-12-08T07:02:06.954Z,85.46
2022-12-08T07:04:33.436Z,85.31
2022-12-08T07:06:59.897Z,85.08
2022-12-08T07:09:26.368Z,85.48
2022-12-08T07:11:52.808Z,85.86
2022-12-08T07:14:23.541Z,85.23
2022-12-08T07:16:53.184Z,86.01
2022-12-08T07:19:19.835Z,85.47
2022-12-08T07:21:46.329Z,85.25
2022-12-08T07:24:13.188Z,85.75
2022-12-08T07:26:39.919Z,86.14
2022-12-08T07:29:06.508Z,85.38
2022-12-08T07:31:33.011Z,85.83
2022-12-08T07:33:59.591Z,85.58
2022-12-08T07:36:26.186Z,85.89
2022-12-08T07:38:56.711Z,86.07
2022-12-08T07:41:24.947Z,85.12
2022-12-08T07:43:53.524Z,85.93
2022-12-08T07:46:22.785Z,85.52
2022-12-08T07:48:49.614Z,85.14
2022-12-08T07:51:16.874Z,86.02
2022-12-08T07:53:51.649Z,85.34
2022-12-08T07:56:20.445Z,85.02
2022-12-08T07:58:47.053Z,84.99
2022-12-08T08:01:25.734Z,85.54
2022-12-08T08:03:53.891Z,85.13
2022-12-08T08:06:20.388Z,85.62
2022-12-08T08:08:47.187Z,84.64
2022-12-08T08:11:21.004Z,85.64
2022-12-08T08:13:48.672Z,84.72
2022-12-08T08:16:15.271Z,84.85
2022-12-08T08:18:41.889Z,84.72
2022-12-08T08:21:43.094Z,84.45
2022-12-08T08:23:54.858Z,84.59
2022-12-08T08:26:21.304Z,84.94
2022-12-08T08:28:48.206Z,84.49
2022-12-08T08:31:14.820Z,84.36
2022-12-08T08:33:41.387Z,84.24
2022-12-08T08:36:09.627Z,84.45
2022-12-08T08:38:39.973Z,84.30
2022-12-08T08:41:10.916Z,83.82
2022-12-08T08:43:38.583Z,83.43
2022-12-08T08:46:07.012Z,83.70
2022-12-08T08:48:33.660Z,82.85
2022-12-08T08:51:10.216Z,82.89
2022-12-08T08:53:37.294Z,82.78
2022-12-08T08:56:08.219Z,83.13
2022-12-08T08:58:34.663Z,82.26
2022-12-08T09:01:01.108Z,81.80
2022-12-08T09:03:27.586Z,81.36
2022-12-08T09:05:56.164Z,81.51
2022-12-08T09:08:23.751Z,81.26
2022-12-08T09:10:50.334Z,80.78
2022-12-08T09:13:17.845Z,80.53
2022-12-08T09:15:44.368Z,79.59
2022-12-08T09:18:10.914Z,79.89
2022-12-08T09:20:37.517Z,79.92
2022-12-08T09:23:04.008Z,79.70
2022-12-08T09:25:30.534Z,79.06
2022-12-08T09:27:57.071Z,78.36
2022-12-08T09:30:23.660Z,78.00
2022-12-08T09:32:50.192Z,78.12
2022-12-08T09:35:16.718Z,78.26
2022-12-08T09:37:43.185Z,78.73
2022-12-08T09:40:15.122Z,77.20
2022-12-08T09:42:54.350Z,76.23
2022-12-08T09:45:23.414Z,76.75
2022-12-08T09:48:05.169Z,77.14
2022-12-08T09:50:44.048Z,76.98
2022-12-08T09:53:42.189Z,76.77
2022-12-08T09:56:14.252Z,76.19
2022-12-08T09:58:55.216Z,76.16
2022-12-08T10:01:23.897Z,76.33
2022-12-08T10:03:50.474Z,76.57
2022-12-08T10:06:27.277Z,75.57
2022-12-08T10:09:12.456Z,75.30
2022-12-08T10:11:56.636Z,75.70
2022-12-08T10:14:42.968Z,76.21
2022-12-08T10:17:21.481Z,76.91
2022-12-08T10:19:49.391Z,77.30
2022-12-08T10:22:21.525Z,77.22
2022-12-08T10:24:57.784Z,77.22
2022-12-08T10:27:24.948Z,76.81
2022-12-08T10:29:51.631Z,78.13
2022-12-08T10:32:22.120Z,77.33
2022-12-08T10:35:08.518Z,77.02
2022-12-08T10:37:35.080Z,76.95
2022-12-08T10:40:16.943Z,76.22
2022-12-08T10:42:50.743Z,75.79
2022-12-08T10:45:28.236Z,75.48
2022-12-08T10:48:09.767Z,74.91
2022-12-08T10:50:53.018Z,74.83
2022-12-08T10:53:27.533Z,75.53
2022-12-08T10:56:14.092Z,75.76
2022-12-08T10:58:43.220Z,75.03
2022-12-08T11:01:26.361Z,74.40
2022-12-08T11:04:01.655Z,73.42
2022-12-08T11:06:32.457Z,74.25
2022-12-08T11:09:01.953Z,74.26
2022-12-08T11:11:48.864Z,72.77
2022-12-08T11:14:28.175Z,73.31
2022-12-08T11:17:05.106Z,74.27
2022-12-08T11:19:38.847Z,75.35
2022-12-08T11:22:43.932Z,74.41
2022-12-08T11:25:11.989Z,74.50
2022-12-08T11:28:05.330Z,74.57
2022-12-08T11:30:37.167Z,73.40
2022-12-08T11:33:14.804Z,72.65
2022-12-08T11:35:44.419Z,73.27
2022-12-08T11:38:24.307Z,72.25
2022-12-08T11:40:55.308Z,73.00
2022-12-08T11:43:37.893Z,72.99
2022-12-08T11:46:12.581Z,71.99
2022-12-08T11:49:06.014Z,71.57
2022-12-08T11:51:59.767Z,72.58
2022-12-08T11:54:32.688Z,71.61
2022-12-08T11:57:01.810Z,72.34
2022-12-08T11:59:41.875Z,71.47
2022-12-08T12:02:15.436Z,70.92
2022-12-08T12:04:50.385Z,70.91
2022-12-08T12:08:02.673Z,71.11
2022-12-08T12:10:45.753Z,69.36
2022-12-08T12:13:50.436Z,70.46
2022-12-08T12:16:46.228Z,70.65
2022-12-08T12:19:16.378Z,70.13
2022-12-08T12:21:46.599Z,70.01
2022-12-08T12:24:35.956Z,70.65
2022-12-08T12:27:15.195Z,71.47
2022-12-08T12:29:55.924Z,70.90
2022-12-08T12:32:24.367Z,70.80
2022-12-08T12:34:54.924Z,70.62
2022-12-08T12:37:37.457Z,71.85
2022-12-08T12:40:17.812Z,70.98
2022-12-08T12:42:49.113Z,72.58
2022-12-08T12:45:19.983Z,73.35
2022-12-08T12:48:20.067Z,72.24
2022-12-08T12:50:48.068Z,72.12
2022-12-08T12:53:17.199Z,72.00
2022-12-08T12:55:54.826Z,72.14
2022-12-08T12:58:27.366Z,72.40
2022-12-08T13:01:15.251Z,72.58
2022-12-08T13:03:47.329Z,73.49
2022-12-08T13:06:21.410Z,73.53
2022-12-08T13:08:54.646Z,73.04
2022-12-08T13:11:22.268Z,72.20
2022-12-08T13:14:03.391Z,72.84
2022-12-08T13:16:37.219Z,74.49
2022-12-08T13:19:05.832Z,73.85
2022-12-08T13:21:37.006Z,73.09
2022-12-08T13:24:28.357Z,73.56
2022-12-08T13:27:31.955Z,74.62
2022-12-08T13:30:35.924Z,73.82
2022-12-08T13:33:17.703Z,74.67
2022-12-08T13:35:50.295Z,74.31
2022-12-08T13:38:21.075Z,73.03
2022-12-08T13:40:48.155Z,73.03
2022-12-08T13:43:26.408Z,72.77
2022-12-08T13:57:32.895Z,72.27
2022-12-08T14:00:01.626Z,72.76
2022-12-08T14:02:48.587Z,71.90
2022-12-08T14:05:19.543Z,71.74
2022-12-08T14:07:51.878Z,72.07
2022-12-08T14:10:24.709Z,72.49
2022-12-08T14:13:06.176Z,73.35
2022-12-08T14:15:37.881Z,72.96
2022-12-08T14:18:06.208Z,72.63
2022-12-08T14:20:51.828Z,72.88
2022-12-08T14:23:21.513Z,73.58
2022-12-08T14:25:48.355Z,73.60
2022-12-08T14:28:14.978Z,73.82
2022-12-08T14:30:41.583Z,74.36
2022-12-08T14:33:14.309Z,74.04
2022-12-08T14:35:40.823Z,74.38
2022-12-08T14:38:15.620Z,73.32
2022-12-08T14:40:48.638Z,73.76
2022-12-08T14:43:18.343Z,73.64
2022-12-08T14:45:44.849Z,73.61
2022-12-08T14:48:43.274Z,73.43
2022-12-08T14:51:18.427Z,73.88
2022-12-08T14:54:02.370Z,73.80
2022-12-08T14:56:45.168Z,73.95
2022-12-08T14:59:20.129Z,73.97
2022-12-08T15:01:48.023Z,74.61
2022-12-08T15:04:17.381Z,73.72
2022-12-08T15:06:49.933Z,73.66
2022-12-08T15:09:28.828Z,74.13
2022-12-08T15:12:04.221Z,73.62
2022-12-08T15:14:33.947Z,73.64
2022-12-08T15:17:00.573Z,75.46
2022-12-08T15:19:32.598Z,74.80
2022-12-08T15:22:12.082Z,74.92
2022-12-08T15:24:38.555Z,75.58
2022-12-08T15:27:04.999Z,76.04
2022-12-08T15:29:31.712Z,75.24
2022-12-08T15:32:00.735Z,75.29
2022-12-08T15:34:27.741Z,75.91
2022-12-08T15:36:55.114Z,76.30
2022-12-08T15:39:31.404Z,76.40
2022-12-08T15:41:58.397Z,76.31
2022-12-08T15:44:25.013Z,76.11
2022-12-08T15:46:52.467Z,75.99
2022-12-08T15:49:21.651Z,76.68
2022-12-08T15:51:48.767Z,76.73
2022-12-08T15:54:16.052Z,76.73
2022-12-08T15:57:17.379Z,76.63
2022-12-08T15:59:33.230Z,76.50
2022-12-08T16:01:59.737Z,76.61
2022-12-08T16:07:25.850Z,76.86
2022-12-08T16:09:53.399Z,77.36
2022-12-08T16:18:26.210Z,77.74
2022-12-08T16:23:44.133Z,77.26
2022-12-08T16:27:06.922Z,76.90
2022-12-08T16:29:05.304Z,76.29
2022-12-08T16:31:32.219Z,76.49
2022-12-08T16:33:58.742Z,76.10
2022-12-08T16:36:25.253Z,76.59
2022-12-08T16:38:51.708Z,76.88
2022-12-08T16:41:37.001Z,77.20
2022-12-08T16:44:05.674Z,76.93
2022-12-08T16:46:32.209Z,76.71
2022-12-08T16:49:00.977Z,76.51
2022-12-08T16:51:27.782Z,76.45
2022-12-08T16:53:58.325Z,76.39
2022-12-08T16:56:31.888Z,76.46
2022-12-08T16:58:59.614Z,76.82
2022-12-08T17:01:26.233Z,76.56
2022-12-08T17:04:14.732Z,75.94
2022-12-08T17:06:39.495Z,76.68
2022-12-08T17:09:06.097Z,76.53
2022-12-08T17:11:36.281Z,75.69
2022-12-08T17:14:05.838Z,76.11
2022-12-08T17:16:32.363Z,75.49
2022-12-08T17:18:58.899Z,75.74
2022-12-08T17:21:25.387Z,76.68
2022-12-08T17:23:51.868Z,75.80
2022-12-08T17:26:18.303Z,75.83
2022-12-08T17:29:00.026Z,75.96
2022-12-08T17:31:30.271Z,75.11
2022-12-08T17:34:02.879Z,75.60
2022-12-08T17:36:29.356Z,75.37
2022-12-08T17:38:58.202Z,76.06
2022-12-08T17:41:24.698Z,76.22
2022-12-08T17:43:51.148Z,75.72
2022-12-08T17:46:22.047Z,76.15
2022-12-08T17:48:49.319Z,76.69
2022-12-08T17:51:16.140Z,76.15
2022-12-08T17:53:42.763Z,76.29
2022-12-08T17:56:20.720Z,76.28
2022-12-08T17:58:51.341Z,75.80
2022-12-08T18:01:21.156Z,75.40
2022-12-08T18:03:47.636Z,75.63
2022-12-08T18:06:14.131Z,75.57
2022-12-08T18:08:40.785Z,75.53
2022-12-08T18:11:13.912Z,75.49
2022-12-08T18:13:40.546Z,75.71
2022-12-08T18:16:07.185Z,75.57
2022-12-08T18:18:33.631Z,75.90
2022-12-08T18:21:00.097Z,75.83
2022-12-08T18:23:26.766Z,75.48
2022-12-08T18:25:53.223Z,75.69
2022-12-08T18:28:19.683Z,76.05
2022-12-08T18:30:46.225Z,76.34
2022-12-08T18:33:12.699Z,75.97
2022-12-08T18:35:40.083Z,76.15
2022-12-08T18:38:06.566Z,75.38
2022-12-08T18:40:33.394Z,75.99
2022-12-08T18:42:59.854Z,75.97
2022-12-08T18:45:26.309Z,76.25
2022-12-08T18:47:52.763Z,75.69
2022-12-08T18:50:19.236Z,75.08
2022-12-08T18:52:46.775Z,75.61
2022-12-08T18:55:14.307Z,76.13
2022-12-08T18:57:43.056Z,75.82
2022-12-08T19:00:13.351Z,75.36
2022-12-08T19:02:41.300Z,75.54
2022-12-08T19:05:09.599Z,75.42
2022-12-08T19:07:36.172Z,74.77
2022-12-08T19:10:04.203Z,74.79
2022-12-08T19:12:31.199Z,75.45
2022-12-08T19:14:57.993Z,75.34
2022-12-08T19:17:25.840Z,75.55
2022-12-08T19:19:52.404Z,75.52
2022-12-08T19:22:18.821Z,75.36
2022-12-08T19:24:45.368Z,75.73
2022-12-08T19:27:11.921Z,75.57
2022-12-08T19:29:38.416Z,75.08
2022-12-08T19:32:05.199Z,74.21
2022-12-08T19:34:31.763Z,74.88
2022-12-08T19:36:58.178Z,75.67
2022-12-08T19:39:43.003Z,74.71
2022-12-08T19:42:37.098Z,74.59
2022-12-08T19:45:13.464Z,75.47
2022-12-08T19:47:40.775Z,75.47
2022-12-08T19:50:28.539Z,75.34
2022-12-08T19:52:55.976Z,75.55
2022-12-08T19:55:23.566Z,74.96
2022-12-08T19:57:53.728Z,75.23
2022-12-08T20:00:21.083Z,75.11
2022-12-08T20:02:48.041Z,76.26
2022-12-08T20:05:15.359Z,76.08
2022-12-08T20:07:42.220Z,76.54
2022-12-08T20:10:22.035Z,78.16
2022-12-08T20:12:48.640Z,79.18
2022-12-08T20:15:15.149Z,79.38
2022-12-08T20:17:42.476Z,80.35
2022-12-08T20:20:10.695Z,80.42
2022-12-08T20:22:37.362Z,80.19
2022-12-08T20:25:04.138Z,80.51
2022-12-08T20:27:30.582Z,80.59
2022-12-08T20:29:57.053Z,81.16
2022-12-08T20:32:23.597Z,81.72
2022-12-08T20:34:50.115Z,82.50
2022-12-08T20:37:16.659Z,83.25
2022-12-08T20:39:43.121Z,83.79
2022-12-08T20:42:12.718Z,83.17
2022-12-08T20:44:43.230Z,83.61
2022-12-08T20:47:10.543Z,83.64
2022-12-08T20:49:37.300Z,83.23
2022-12-08T20:52:04.098Z,83.64
2022-12-08T20:54:30.595Z,84.32
2022-12-08T20:56:57.041Z,84.42
2022-12-08T20:59:23.843Z,84.42
2022-12-08T21:01:52.166Z,83.45
2022-12-08T21:04:18.889Z,83.26
2022-12-08T21:06:45.482Z,83.63
2022-12-08T21:09:12.409Z,82.69
2022-12-08T21:11:39.328Z,82.71
2022-12-08T21:14:05.944Z,83.24
2022-12-08T21:16:32.924Z,82.71
2022-12-08T21:19:00.043Z,82.41
2022-12-08T21:21:26.624Z,82.99
2022-12-08T21:23:53.559Z,82.76
2022-12-08T21:26:23.261Z,82.75
2022-12-08T21:28:49.807Z,82.92
2022-12-08T21:31:21.555Z,83.92
2022-12-08T21:33:49.174Z,83.80
2022-12-08T21:36:18.349Z,84.55
2022-12-08T21:38:45.676Z,84.02
2022-12-08T21:41:41.643Z,85.00
2022-12-08T21:44:13.254Z,84.51
2022-12-08T21:46:39.782Z,85.05
2022-12-08T21:49:07.016Z,85.07
2022-12-08T21:51:37.516Z,85.17
2022-12-08T21:54:05.005Z,85.67
2022-12-08T21:56:31.588Z,85.49
2022-12-08T21:58:58.582Z,86.02
2022-12-08T22:01:25.230Z,86.08
2022-12-08T22:03:51.867Z,85.97
2022-12-08T22:06:18.703Z,86.32
2022-12-08T22:08:45.388Z,85.75
2022-12-08T22:11:12.122Z,85.23
2022-12-08T22:13:40.518Z,86.16
2022-12-08T22:16:10.565Z,86.12
2022-12-08T22:18:37.701Z,85.69
2022-12-08T22:21:15.942Z,85.69
2022-12-08T22:23:43.284Z,84.94
2022-12-08T22:26:11.110Z,85.61
2022-12-08T22:28:41.570Z,84.98
2022-12-08T22:31:13.598Z,85.31
2022-12-08T22:33:41.423Z,85.43
2022-12-08T22:36:14.287Z,85.59
2022-12-08T22:38:41.209Z,84.99
2022-12-08T22:41:08.392Z,84.21
2022-12-08T22:43:36.677Z,85.18
2022-12-08T22:46:12.307Z,84.70
2022-12-08T22:48:39.345Z,84.44
2022-12-08T22:51:06.702Z,84.05
2022-12-08T22:53:33.838Z,83.90
2022-12-08T22:56:03.055Z,83.02
2022-12-08T22:58:29.536Z,84.11
2022-12-08T23:00:56.006Z,84.69
2022-12-08T23:03:22.557Z,84.90
2022-12-08T23:05:49.313Z,84.50
2022-12-08T23:08:17.777Z,85.64
2022-12-08T23:10:46.727Z,84.92
2022-12-08T23:13:14.353Z,84.96
2022-12-08T23:15:40.956Z,85.08
2022-12-08T23:18:08.583Z,84.84
2022-12-08T23:20:35.149Z,84.03
2022-12-08T23:23:01.703Z,84.82
2022-12-08T23:25:28.188Z,84.58
2022-12-08T23:27:54.755Z,83.82
2022-12-08T23:30:21.309Z,84.30
2022-12-08T23:32:48.041Z,84.95
2022-12-08T23:35:14.773Z,84.19
2022-12-08T23:37:41.308Z,84.31
2022-12-08T23:40:08.821Z,85.44
2022-12-08T23:42:35.675Z,85.92
2022-12-08T23:45:04.321Z,86.05
2022-12-08T23:47:30.913Z,85.85
2022-12-08T23:49:57.415Z,84.93
2022-12-08T23:52:24.417Z,84.74
2022-12-08T23:54:51.217Z,84.38
2022-12-08T23:57:17.688Z,83.89
2022-12-08T23:59:44.593Z,84.05
